Time;durP1;ratioP1;P1;durP2;ratioP2;P2;SDS_P1;SDS_P2;PMS_P1;PMS_P2;Temp;Humidity;BMP_temperature;BMP_pressure;BME280_temperature;BME280_humidity;BME280_pressure;Samples;Min_cycle;Max_cycle;Signal;HPM_P1;HPM_P2
2021/07/15 00:01:27;;;;;;;43.25;14.18;;;16.10;99.90;;;;;;4990401;28;20122;-82
2021/07/15 00:03:52;;;;;;;55.97;16.13;;;16.10;99.90;;;;;;4988490;28;20029;-81
2021/07/15 00:06:18;;;;;;;34.83;14.32;;;16.00;99.90;;;;;;4962888;28;20042;-82
2021/07/15 00:08:44;;;;;;;30.08;12.30;;;16.10;99.90;;;;;;4967795;28;20038;-82
2021/07/15 00:11:11;;;;;;;37.80;12.63;;;16.10;99.90;;;;;;4966320;28;20093;-82
2021/07/15 00:13:37;;;;;;;39.58;15.23;;;16.10;99.90;;;;;;4967620;28;20034;-82
2021/07/15 00:16:10;;;;;;;37.33;11.55;;;16.10;99.90;;;;;;4973094;28;20033;-82
2021/07/15 00:18:38;;;;;;;19.38;9.57;;;16.10;99.90;;;;;;4987272;28;20129;-82
2021/07/15 00:21:06;;;;;;;26.88;10.20;;;16.20;99.90;;;;;;4949106;28;20049;-81
2021/07/15 00:23:32;;;;;;;13.35;8.48;;;16.30;99.90;;;;;;4986925;28;20065;-81
2021/07/15 00:25:57;;;;;;;14.75;9.50;;;16.30;99.90;;;;;;4979663;28;20066;-82
2021/07/15 00:28:23;;;;;;;17.60;11.75;;;16.40;99.90;;;;;;4986110;28;20466;-81
2021/07/15 00:30:49;;;;;;;18.52;11.15;;;16.40;99.90;;;;;;4966880;28;20092;-83
2021/07/15 00:33:15;;;;;;;70.40;13.32;;;16.30;99.90;;;;;;4983364;28;20066;-83
2021/07/15 00:35:40;;;;;;;159.38;20.90;;;16.30;99.90;;;;;;4970537;28;20056;-84
2021/07/15 00:38:06;;;;;;;56.55;19.25;;;16.20;99.90;;;;;;4989861;28;20034;-83
2021/07/15 00:40:32;;;;;;;65.05;19.88;;;16.20;99.90;;;;;;4970568;28;20401;-83
2021/07/15 00:42:58;;;;;;;64.10;19.77;;;16.20;99.90;;;;;;4971096;28;20069;-83
2021/07/15 00:45:23;;;;;;;42.13;13.73;;;16.20;99.90;;;;;;4982368;28;20084;-83
2021/07/15 00:47:49;;;;;;;38.30;15.27;;;16.10;99.90;;;;;;4983711;28;20138;-83
2021/07/15 00:50:17;;;;;;;43.85;14.40;;;16.20;99.90;;;;;;4987730;28;20034;-82
2021/07/15 00:52:45;;;;;;;147.35;21.63;;;16.20;99.90;;;;;;4984719;28;20033;-82
2021/07/15 00:55:41;;;;;;;54.53;14.57;;;16.20;99.90;;;;;;4966122;28;20038;-83
2021/07/15 00:58:12;;;;;;;20.52;11.63;;;16.20;99.90;;;;;;4980860;28;20044;-83
2021/07/15 01:00:39;;;;;;;9.30;6.05;;;16.20;99.90;;;;;;4978470;28;20041;-82
2021/07/15 01:03:05;;;;;;;17.17;5.78;;;16.30;99.90;;;;;;4980793;28;20026;-82
2021/07/15 01:05:38;;;;;;;238.45;14.95;;;16.50;99.90;;;;;;4971072;28;20041;-82
2021/07/15 01:08:07;;;;;;;98.38;9.23;;;16.40;99.90;;;;;;4978191;28;20065;-83
2021/07/15 01:10:34;;;;;;;16.48;7.75;;;16.30;99.90;;;;;;4975718;28;20042;-83
2021/07/15 01:13:12;;;;;;;107.38;12.55;;;16.30;99.90;;;;;;4962427;28;20033;-83
2021/07/15 01:15:45;;;;;;;9.02;5.88;;;16.30;99.90;;;;;;4998187;28;20038;-82
2021/07/15 01:18:16;;;;;;;8.38;6.40;;;16.20;99.90;;;;;;4981682;28;20034;-83
2021/07/15 01:20:54;;;;;;;10.48;7.95;;;16.30;99.90;;;;;;4992818;28;20034;-83
2021/07/15 01:23:54;;;;;;;92.38;11.75;;;16.30;99.90;;;;;;4996884;28;20448;-83
2021/07/15 01:26:57;;;;;;;339.85;19.27;;;16.30;99.90;;;;;;4998201;28;20481;-82
2021/07/15 01:29:31;;;;;;;10.05;7.88;;;16.30;99.90;;;;;;5008069;28;20026;-82
2021/07/15 01:31:57;;;;;;;7.57;6.70;;;16.30;99.90;;;;;;4980375;28;20049;-83
2021/07/15 01:34:22;;;;;;;185.18;14.80;;;16.30;99.90;;;;;;4975793;28;20035;-83
2021/07/15 01:36:51;;;;;;;68.32;11.88;;;16.30;99.90;;;;;;4973776;28;20034;-83
2021/07/15 01:39:16;;;;;;;7.65;5.80;;;16.20;99.90;;;;;;4967313;28;20030;-83
2021/07/15 01:41:45;;;;;;;38.13;9.27;;;16.20;99.90;;;;;;4985666;28;20104;-82
2021/07/15 01:44:15;;;;;;;35.42;9.82;;;16.30;99.90;;;;;;4980144;28;20022;-82
2021/07/15 01:46:41;;;;;;;21.20;10.10;;;16.20;99.90;;;;;;4987657;28;20478;-83
2021/07/15 01:49:07;;;;;;;9.40;5.40;;;16.20;99.90;;;;;;4962613;28;20034;-82
2021/07/15 01:51:34;;;;;;;8.40;6.72;;;16.40;99.90;;;;;;4982912;28;20101;-82
2021/07/15 01:53:59;;;;;;;5.22;4.53;;;16.50;99.90;;;;;;4982780;28;20034;-83
2021/07/15 01:56:25;;;;;;;9.13;6.97;;;16.50;99.90;;;;;;4981613;28;20037;-83
2021/07/15 01:58:50;;;;;;;17.73;9.85;;;16.50;99.90;;;;;;4981017;28;20455;-83
2021/07/15 02:01:16;;;;;;;13.63;10.18;;;16.30;99.90;;;;;;4982869;28;20125;-83
2021/07/15 02:03:47;;;;;;;13.85;10.35;;;16.20;99.90;;;;;;4967813;28;20030;-83
2021/07/15 02:06:13;;;;;;;17.95;9.73;;;16.10;99.90;;;;;;4970381;28;20057;-83
2021/07/15 02:08:39;;;;;;;19.45;11.18;;;16.10;99.90;;;;;;4988890;28;20034;-82
2021/07/15 02:11:05;;;;;;;14.68;10.13;;;16.20;99.90;;;;;;4963974;28;20398;-83
2021/07/15 02:13:30;;;;;;;18.73;9.98;;;16.20;99.90;;;;;;4976686;28;20038;-83
2021/07/15 02:15:56;;;;;;;6.32;4.38;;;16.10;99.90;;;;;;4989186;28;20453;-83
2021/07/15 02:18:22;;;;;;;7.90;6.07;;;16.20;99.90;;;;;;4985646;28;20033;-83
2021/07/15 02:20:50;;;;;;;7.65;6.13;;;16.20;99.90;;;;;;4989055;28;20116;-83
2021/07/15 02:23:15;;;;;;;6.80;5.40;;;16.30;99.90;;;;;;4998248;28;20038;-83
2021/07/15 02:25:41;;;;;;;7.30;6.15;;;16.30;99.90;;;;;;4986513;28;20033;-83
2021/07/15 02:28:10;;;;;;;8.63;7.40;;;16.20;99.90;;;;;;4967017;28;20390;-82
2021/07/15 02:30:36;;;;;;;10.90;8.10;;;16.20;99.90;;;;;;4969945;28;20440;-81
2021/07/15 02:33:03;;;;;;;12.13;6.32;;;16.30;99.90;;;;;;4977655;28;20038;-82
2021/07/15 02:35:37;;;;;;;5.43;3.42;;;16.20;99.90;;;;;;4971185;28;20037;-82
2021/07/15 02:38:04;;;;;;;12.38;8.00;;;16.30;99.90;;;;;;4979978;28;20034;-81
2021/07/15 02:40:29;;;;;;;12.07;7.57;;;16.20;99.90;;;;;;4979164;28;20685;-82
2021/07/15 02:42:55;;;;;;;11.75;8.13;;;16.40;99.90;;;;;;4981573;28;20060;-82
2021/07/15 02:45:20;;;;;;;9.82;7.70;;;16.20;99.90;;;;;;4992355;28;20080;-82
2021/07/15 02:47:46;;;;;;;12.63;8.63;;;16.20;99.90;;;;;;4986957;28;20041;-82
2021/07/15 02:50:14;;;;;;;12.20;8.70;;;16.20;99.90;;;;;;4968251;28;20392;-82
2021/07/15 02:52:39;;;;;;;13.32;8.40;;;16.30;99.90;;;;;;4980885;28;20039;-82
2021/07/15 02:55:05;;;;;;;16.55;10.32;;;16.30;99.90;;;;;;4967416;28;20027;-82
2021/07/15 02:57:35;;;;;;;14.80;9.35;;;16.30;99.90;;;;;;4962354;28;20034;-82
2021/07/15 03:00:11;;;;;;;20.83;11.02;;;16.30;99.90;;;;;;4996371;28;20041;-82
2021/07/15 03:02:48;;;;;;;10.75;7.70;;;16.30;99.90;;;;;;4985976;28;20030;-82
2021/07/15 03:05:41;;;;;;;7.82;5.20;;;16.30;99.90;;;;;;4987316;28;20500;-82
2021/07/15 03:08:08;;;;;;;12.70;8.07;;;16.30;99.90;;;;;;4980628;28;20065;-82
2021/07/15 03:10:34;;;;;;;9.07;6.63;;;16.40;99.90;;;;;;4990341;28;20410;-82
2021/07/15 03:13:01;;;;;;;12.27;8.05;;;16.40;99.90;;;;;;4990771;28;20117;-82
2021/07/15 03:15:26;;;;;;;20.52;10.02;;;16.30;99.90;;;;;;4967544;28;20511;-82
2021/07/15 03:17:52;;;;;;;5.68;4.30;;;16.30;99.90;;;;;;4990462;28;20030;-82
2021/07/15 03:20:21;;;;;;;5.60;4.60;;;16.30;99.90;;;;;;4988375;28;20501;-82
2021/07/15 03:22:49;;;;;;;3.35;2.80;;;16.40;99.90;;;;;;4989515;28;20041;-82
2021/07/15 03:25:15;;;;;;;5.22;4.50;;;16.40;99.90;;;;;;4979459;28;20037;-82
2021/07/15 03:27:43;;;;;;;7.50;5.38;;;16.50;99.90;;;;;;4985259;28;20045;-82
2021/07/15 03:30:09;;;;;;;4.90;3.88;;;16.50;99.90;;;;;;5002107;28;20041;-82
2021/07/15 03:32:35;;;;;;;7.35;6.22;;;16.40;99.90;;;;;;4994828;28;20035;-82
2021/07/15 03:35:01;;;;;;;6.47;4.07;;;16.40;99.90;;;;;;4984997;28;20037;-82
2021/07/15 03:37:27;;;;;;;7.13;5.93;;;16.50;99.90;;;;;;4962696;28;20478;-82
2021/07/15 03:39:52;;;;;;;11.98;8.32;;;16.40;99.90;;;;;;4989579;28;20037;-82
2021/07/15 03:42:18;;;;;;;17.52;9.10;;;16.30;99.90;;;;;;5002973;28;20037;-82
2021/07/15 03:44:44;;;;;;;13.60;9.23;;;16.30;99.90;;;;;;5004129;28;20042;-82
2021/07/15 03:47:10;;;;;;;7.32;5.05;;;16.30;99.90;;;;;;5002521;28;20037;-82
2021/07/15 03:49:35;;;;;;;8.70;5.75;;;16.30;99.90;;;;;;4989416;28;20371;-82
2021/07/15 03:52:01;;;;;;;19.25;6.65;;;16.30;99.90;;;;;;5004389;28;20500;-81
2021/07/15 03:54:27;;;;;;;12.32;8.73;;;16.40;99.90;;;;;;4998768;28;20030;-82
2021/07/15 03:56:52;;;;;;;13.25;9.65;;;16.40;99.90;;;;;;5000562;28;20155;-82
2021/07/15 03:59:19;;;;;;;12.85;8.57;;;16.40;99.90;;;;;;4990001;28;20057;-82
2021/07/15 04:01:45;;;;;;;12.68;8.95;;;16.40;99.90;;;;;;4989995;28;20508;-82
2021/07/15 04:04:11;;;;;;;13.80;9.23;;;16.40;99.90;;;;;;4989875;28;20027;-82
2021/07/15 04:06:37;;;;;;;11.30;8.25;;;16.40;99.90;;;;;;5004013;28;20532;-82
2021/07/15 04:09:03;;;;;;;11.50;7.57;;;16.40;99.90;;;;;;4986420;28;20041;-83
2021/07/15 04:11:29;;;;;;;14.23;8.27;;;16.40;99.90;;;;;;4988375;28;20047;-82
2021/07/15 04:13:55;;;;;;;9.25;6.72;;;16.40;99.90;;;;;;4989172;28;20485;-82
2021/07/15 04:16:47;;;;;;;5.72;4.07;;;16.50;99.90;;;;;;4999191;28;20030;-82
2021/07/15 04:19:12;;;;;;;9.48;6.55;;;16.50;99.90;;;;;;4999160;28;20243;-82
2021/07/15 04:21:38;;;;;;;7.72;4.53;;;16.50;99.90;;;;;;4998954;28;20057;-82
2021/07/15 04:24:04;;;;;;;5.07;3.55;;;16.50;99.90;;;;;;4987929;28;20486;-82
2021/07/15 04:26:29;;;;;;;9.48;7.35;;;16.60;99.90;;;;;;5002174;28;20045;-82
2021/07/15 04:28:55;;;;;;;8.25;7.25;;;16.60;99.90;;;;;;4988475;28;20042;-83
2021/07/15 04:31:51;;;;;;;5.95;3.67;;;16.60;99.90;;;;;;4984780;28;20096;-82
2021/07/15 04:34:16;;;;;;;3.50;2.50;;;16.60;99.90;;;;;;4984909;28;20045;-82
2021/07/15 04:36:51;;;;;;;6.80;6.10;;;16.70;99.90;;;;;;4988475;28;20013;-82
2021/07/15 04:39:16;;;;;;;4.82;2.97;;;16.70;99.90;;;;;;4998136;28;20033;-82
2021/07/15 04:41:43;;;;;;;3.13;2.60;;;16.70;99.90;;;;;;4970805;28;20033;-83
2021/07/15 04:44:10;;;;;;;6.13;4.97;;;16.70;99.90;;;;;;5000917;28;20034;-82
2021/07/15 04:46:36;;;;;;;7.93;6.57;;;17.00;99.90;;;;;;4986745;28;20112;-82
2021/07/15 04:49:02;;;;;;;12.00;6.68;;;17.00;99.90;;;;;;4987596;28;20076;-82
2021/07/15 04:51:27;;;;;;;8.60;6.22;;;17.10;99.90;;;;;;4986927;28;20081;-83
2021/07/15 04:53:53;;;;;;;8.82;4.75;;;17.20;99.90;;;;;;4983453;28;20057;-82
2021/07/15 04:56:18;;;;;;;3.92;3.55;;;17.30;99.90;;;;;;4988276;28;20437;-82
2021/07/15 04:58:44;;;;;;;6.78;6.00;;;17.40;99.90;;;;;;5000555;28;20426;-82
2021/07/15 05:01:10;;;;;;;10.65;7.55;;;17.70;99.90;;;;;;4989982;28;20074;-82
2021/07/15 05:03:36;;;;;;;6.82;5.70;;;17.80;99.90;;;;;;4984039;28;20089;-82
2021/07/15 05:06:03;;;;;;;6.60;5.10;;;18.10;99.90;;;;;;4974825;28;20045;-82
2021/07/15 05:08:28;;;;;;;6.95;4.40;;;18.20;99.90;;;;;;4983622;28;20133;-82
2021/07/15 05:10:54;;;;;;;2.80;2.30;;;18.30;99.90;;;;;;4969819;28;20124;-82
2021/07/15 05:13:20;;;;;;;3.28;2.60;;;18.30;99.90;;;;;;4964995;28;20037;-83
2021/07/15 05:15:49;;;;;;;2.50;2.30;;;18.50;99.90;;;;;;4986399;28;20034;-82
2021/07/15 05:18:15;;;;;;;7.00;3.08;;;18.60;99.90;;;;;;4999205;28;20053;-83
2021/07/15 05:20:40;;;;;;;2.97;2.45;;;18.80;99.90;;;;;;4984284;28;20482;-82
2021/07/15 05:23:06;;;;;;;1.98;1.80;;;19.10;99.90;;;;;;4999697;28;20082;-83
2021/07/15 05:25:31;;;;;;;4.78;2.30;;;19.20;99.90;;;;;;4980749;28;20041;-83
2021/07/15 05:27:57;;;;;;;2.85;2.15;;;19.40;99.90;;;;;;4985227;28;20034;-83
2021/07/15 05:30:22;;;;;;;2.38;2.17;;;19.70;99.90;;;;;;4984558;28;20094;-81
2021/07/15 05:32:48;;;;;;;4.22;2.03;;;19.90;99.90;;;;;;4983634;28;20482;-83
2021/07/15 05:35:13;;;;;;;4.07;1.85;;;20.10;99.90;;;;;;5005014;28;20057;-82
2021/07/15 05:37:40;;;;;;;2.35;2.15;;;20.10;99.90;;;;;;4985898;28;20030;-82
2021/07/15 05:40:06;;;;;;;2.13;1.95;;;20.10;99.90;;;;;;4988760;28;20393;-82
2021/07/15 05:42:32;;;;;;;2.50;2.13;;;20.10;99.90;;;;;;4984624;28;20040;-82
2021/07/15 05:44:57;;;;;;;2.20;1.90;;;20.10;99.90;;;;;;4982590;28;20026;-82
2021/07/15 05:47:23;;;;;;;2.85;2.15;;;20.10;99.90;;;;;;5001315;28;20030;-82
2021/07/15 05:49:49;;;;;;;4.50;2.47;;;20.20;99.90;;;;;;4995742;28;20478;-83
2021/07/15 05:52:14;;;;;;;2.38;1.70;;;20.20;99.90;;;;;;4973421;28;20193;-82
2021/07/15 05:54:40;;;;;;;2.50;2.30;;;20.10;99.90;;;;;;4982619;28;20034;-83
2021/07/15 05:57:05;;;;;;;3.65;2.55;;;20.10;99.90;;;;;;5003109;28;20079;-82
2021/07/15 05:59:32;;;;;;;5.47;2.30;;;20.10;99.90;;;;;;4984416;28;20041;-82
2021/07/15 06:01:58;;;;;;;2.97;2.50;;;20.20;99.90;;;;;;5001475;28;20036;-83
2021/07/15 06:04:24;;;;;;;5.82;3.05;;;20.20;99.90;;;;;;4963175;28;20026;-82
2021/07/15 06:06:49;;;;;;;3.40;3.10;;;20.10;99.90;;;;;;4986292;28;20472;-82
2021/07/15 06:09:15;;;;;;;4.03;3.20;;;20.10;99.90;;;;;;4986144;28;20473;-82
2021/07/15 06:11:40;;;;;;;3.10;2.30;;;20.20;99.90;;;;;;4982618;28;20378;-80
2021/07/15 06:14:06;;;;;;;3.05;2.58;;;20.30;99.90;;;;;;5003997;28;20104;-82
2021/07/15 06:16:31;;;;;;;5.25;1.80;;;20.20;99.90;;;;;;5001992;28;20385;-82
2021/07/15 06:18:57;;;;;;;3.67;1.80;;;20.20;99.90;;;;;;4998793;28;20373;-82
2021/07/15 06:21:22;;;;;;;2.00;1.52;;;20.20;99.90;;;;;;4984501;28;20025;-82
2021/07/15 06:23:48;;;;;;;1.08;1.05;;;20.30;99.90;;;;;;4987477;28;20518;-83
2021/07/15 06:26:13;;;;;;;1.52;1.42;;;20.30;99.90;;;;;;4982294;28;20033;-82
2021/07/15 06:28:39;;;;;;;4.38;1.45;;;20.40;99.90;;;;;;4984118;28;20084;-83
2021/07/15 06:31:05;;;;;;;1.35;1.25;;;20.40;99.90;;;;;;4977412;28;20047;-83
2021/07/15 06:33:30;;;;;;;1.67;1.20;;;20.40;99.90;;;;;;4983478;28;20172;-83
2021/07/15 06:35:56;;;;;;;4.03;1.00;;;20.40;99.90;;;;;;4981114;28;20116;-83
2021/07/15 06:38:25;;;;;;;2.25;0.98;;;20.30;99.90;;;;;;4986371;28;20493;-83
2021/07/15 06:40:56;;;;;;;3.00;1.30;;;20.30;99.90;;;;;;4985758;28;20034;-83
2021/07/15 06:43:21;;;;;;;4.13;1.10;;;20.30;99.90;;;;;;4984875;28;20030;-83
2021/07/15 06:45:47;;;;;;;3.38;2.00;;;20.30;99.90;;;;;;5002575;28;20833;-83
2021/07/15 06:48:12;;;;;;;2.50;0.70;;;20.30;99.90;;;;;;4979855;28;20059;-83
2021/07/15 06:50:38;;;;;;;1.58;0.85;;;20.30;99.90;;;;;;4985760;28;20119;-83
2021/07/15 06:53:04;;;;;;;2.67;1.05;;;20.30;99.90;;;;;;4961254;28;20035;-83
2021/07/15 06:55:29;;;;;;;1.65;0.80;;;20.30;99.90;;;;;;4984604;28;20570;-83
2021/07/15 06:57:55;;;;;;;0.82;0.82;;;20.30;99.90;;;;;;4985964;28;20065;-83
2021/07/15 07:00:22;;;;;;;1.27;1.00;;;20.30;99.90;;;;;;4966379;28;20069;-83
2021/07/15 07:02:47;;;;;;;2.03;0.82;;;20.30;99.90;;;;;;4986518;28;20041;-83
2021/07/15 07:05:13;;;;;;;1.50;1.10;;;20.30;99.90;;;;;;4983376;28;20022;-83
2021/07/15 07:07:39;;;;;;;2.33;1.00;;;20.30;99.90;;;;;;4979024;28;20501;-83
2021/07/15 07:10:08;;;;;;;1.58;1.05;;;20.30;99.90;;;;;;4962534;28;20049;-84
2021/07/15 07:12:34;;;;;;;1.45;1.35;;;20.30;99.90;;;;;;4969640;28;20489;-83
2021/07/15 07:15:00;;;;;;;1.92;1.25;;;20.30;99.90;;;;;;4962862;28;20026;-84
2021/07/15 07:19:14;;;;;;;1.33;1.23;;;20.40;99.90;;;;;;5016185;28;20369;-83
2021/07/15 07:21:40;;;;;;;4.28;1.38;;;20.40;99.90;;;;;;4995823;28;20081;-83
2021/07/15 07:24:05;;;;;;;2.83;0.95;;;20.60;99.90;;;;;;4991473;28;20373;-83
2021/07/15 07:26:31;;;;;;;2.05;1.35;;;20.50;99.90;;;;;;5000688;28;20052;-84
2021/07/15 07:28:56;;;;;;;1.60;1.10;;;20.60;99.90;;;;;;4996161;28;20137;-83
2021/07/15 07:31:22;;;;;;;3.90;1.17;;;20.60;99.90;;;;;;4994120;28;20026;-82
2021/07/15 07:33:47;;;;;;;2.25;1.20;;;20.90;99.90;;;;;;5003342;28;20025;-82
2021/07/15 07:36:13;;;;;;;3.22;1.23;;;20.90;99.90;;;;;;5012746;28;20032;-83
2021/07/15 07:38:38;;;;;;;2.53;1.23;;;21.10;99.90;;;;;;4999721;28;20056;-83
2021/07/15 07:41:04;;;;;;;4.78;1.23;;;21.30;99.90;;;;;;5007223;28;20038;-83
2021/07/15 07:43:29;;;;;;;1.90;1.30;;;21.50;99.90;;;;;;5013099;28;20041;-83
2021/07/15 07:45:55;;;;;;;1.70;1.30;;;21.70;99.90;;;;;;5000614;28;20061;-83
2021/07/15 07:48:21;;;;;;;1.40;1.30;;;22.00;99.90;;;;;;5002984;28;20034;-83
2021/07/15 07:50:46;;;;;;;3.38;1.70;;;22.20;99.90;;;;;;5012189;28;20018;-83
2021/07/15 07:53:12;;;;;;;3.72;1.55;;;22.40;99.90;;;;;;5009336;28;20100;-83
2021/07/15 07:55:39;;;;;;;3.47;1.20;;;22.70;99.90;;;;;;4998137;28;20031;-83
2021/07/15 07:58:05;;;;;;;1.73;1.27;;;23.00;99.90;;;;;;5008909;28;20107;-83
2021/07/15 08:00:30;;;;;;;2.00;1.90;;;23.10;99.90;;;;;;5011443;28;20038;-83
2021/07/15 08:02:56;;;;;;;1.67;1.52;;;23.50;99.90;;;;;;5009124;28;20072;-83
2021/07/15 08:05:23;;;;;;;1.17;0.75;;;23.60;99.90;;;;;;5013580;28;20034;-84
2021/07/15 08:07:49;;;;;;;1.48;1.13;;;23.40;99.90;;;;;;5002101;28;20028;-84
2021/07/15 08:10:15;;;;;;;1.45;1.30;;;23.30;99.90;;;;;;5006827;28;20109;-84
2021/07/15 08:12:40;;;;;;;2.47;1.13;;;23.60;99.90;;;;;;5016786;28;20022;-84
2021/07/15 08:15:07;;;;;;;1.15;1.05;;;23.60;99.90;;;;;;5028843;28;20518;-84
2021/07/15 08:17:32;;;;;;;5.93;1.90;;;24.10;99.90;;;;;;5017364;28;20099;-84
2021/07/15 08:19:58;;;;;;;1.98;1.13;;;24.40;99.90;;;;;;5015539;28;20113;-84
2021/07/15 08:22:23;;;;;;;2.35;1.20;;;24.10;99.90;;;;;;5009075;28;20123;-85
2021/07/15 08:24:49;;;;;;;1.92;0.88;;;23.80;99.90;;;;;;5006052;28;20489;-85
2021/07/15 08:27:14;;;;;;;1.30;1.20;;;24.10;99.90;;;;;;5031024;28;20025;-84
2021/07/15 08:29:40;;;;;;;1.65;1.13;;;24.80;99.90;;;;;;4991043;28;20618;-83
2021/07/15 08:32:07;;;;;;;1.90;1.63;;;25.00;99.90;;;;;;5009595;28;20114;-83
2021/07/15 08:34:33;;;;;;;3.15;1.20;;;25.20;99.90;;;;;;5007101;28;20035;-83
2021/07/15 08:36:58;;;;;;;2.20;0.95;;;25.90;99.90;;;;;;5022068;28;20038;-83
2021/07/15 08:39:24;;;;;;;1.40;1.30;;;26.20;99.90;;;;;;5021388;28;20038;-83
2021/07/15 08:41:49;;;;;;;2.33;1.17;;;26.60;99.90;;;;;;5005230;28;20113;-83
2021/07/15 08:44:16;;;;;;;1.83;1.38;;;26.90;99.90;;;;;;4994363;28;20053;-83
2021/07/15 08:46:44;;;;;;;1.15;1.00;;;26.80;99.90;;;;;;4997423;28;20036;-83
2021/07/15 08:49:11;;;;;;;0.60;0.60;;;27.20;99.90;;;;;;4995350;28;20313;-84
2021/07/15 08:51:36;;;;;;;6.00;1.23;;;26.90;99.90;;;;;;5020520;28;20026;-83
2021/07/15 08:54:02;;;;;;;0.60;0.60;;;27.30;99.90;;;;;;4991100;28;20109;-83
2021/07/15 08:56:37;;;;;;;1.38;0.80;;;27.60;99.90;;;;;;5022291;28;20033;-85
2021/07/15 08:59:06;;;;;;;1.30;0.70;;;27.90;99.90;;;;;;4987188;28;20093;-84
2021/07/15 09:01:32;;;;;;;1.10;1.00;;;28.30;99.90;;;;;;4993749;28;20030;-84
2021/07/15 09:03:58;;;;;;;3.45;0.65;;;28.20;99.90;;;;;;4990899;28;20034;-84
2021/07/15 09:06:24;;;;;;;1.63;0.85;;;28.40;99.90;;;;;;4992443;28;20405;-83
2021/07/15 09:08:51;;;;;;;1.33;1.15;;;28.80;99.90;;;;;;5011727;28;20397;-84
2021/07/15 09:11:17;;;;;;;1.25;1.13;;;29.20;99.90;;;;;;5014040;28;20547;-84
2021/07/15 09:13:42;;;;;;;1.55;1.10;;;29.40;99.90;;;;;;5006458;28;20064;-84
2021/07/15 09:16:13;;;;;;;0.80;0.73;;;29.70;99.50;;;;;;5008631;28;20037;-85
2021/07/15 09:19:01;;;;;;;2.92;1.15;;;29.90;98.60;;;;;;5006151;28;20094;-84
2021/07/15 09:21:31;;;;;;;3.55;0.90;;;30.30;99.00;;;;;;4992903;28;20437;-85
2021/07/15 09:23:57;;;;;;;3.13;0.90;;;30.30;98.30;;;;;;5024723;28;20052;-85
2021/07/15 09:26:23;;;;;;;2.35;1.13;;;30.30;95.80;;;;;;5008286;28;20476;-85
2021/07/15 09:28:49;;;;;;;2.53;0.95;;;30.20;95.70;;;;;;5004334;28;20075;-86
2021/07/15 09:31:19;;;;;;;3.35;1.85;;;30.00;95.10;;;;;;5022508;28;20033;-85
2021/07/15 09:33:45;;;;;;;1.35;1.25;;;29.80;94.40;;;;;;5000558;28;20033;-85
2021/07/15 09:36:12;;;;;;;0.90;0.90;;;29.60;95.70;;;;;;5020352;28;20025;-85
2021/07/15 09:38:39;;;;;;;1.23;0.82;;;29.50;95.50;;;;;;5023540;28;20477;-85
2021/07/15 09:41:04;;;;;;;3.25;2.58;;;29.60;96.80;;;;;;4985554;28;20112;-86
2021/07/15 09:43:31;;;;;;;1.27;1.05;;;29.80;96.20;;;;;;5004911;28;20180;-86
2021/07/15 09:45:58;;;;;;;3.08;1.13;;;30.20;94.80;;;;;;5006482;28;20087;-85
2021/07/15 09:48:25;;;;;;;2.20;2.00;;;30.10;94.80;;;;;;5006990;28;20037;-86
2021/07/15 09:50:52;;;;;;;2.42;1.70;;;30.30;94.40;;;;;;5005195;28;20034;-85
2021/07/15 09:53:19;;;;;;;1.52;1.42;;;30.50;95.70;;;;;;5007035;28;20082;-83
2021/07/15 09:55:45;;;;;;;1.20;1.10;;;30.90;94.90;;;;;;5023915;28;20130;-86
2021/07/15 09:58:11;;;;;;;1.42;1.33;;;31.00;94.80;;;;;;5008416;28;20048;-86
2021/07/15 10:00:37;;;;;;;1.30;1.00;;;31.10;93.70;;;;;;4991513;28;20049;-84
2021/07/15 10:03:04;;;;;;;1.98;1.15;;;31.20;93.20;;;;;;5022141;28;20030;-85
2021/07/15 10:05:30;;;;;;;2.60;1.30;;;31.40;92.90;;;;;;5008546;28;20108;-84
2021/07/15 10:08:09;;;;;;;1.88;1.33;;;31.60;92.40;;;;;;5007131;28;20108;-84
2021/07/15 10:10:35;;;;;;;1.27;1.17;;;31.50;91.70;;;;;;5023091;28;20163;-84
2021/07/15 10:13:23;;;;;;;2.08;1.48;;;31.40;91.80;;;;;;5004660;28;20046;-84
2021/07/15 10:15:49;;;;;;;2.03;1.83;;;31.30;90.80;;;;;;5004805;28;20171;-84
2021/07/15 10:18:35;;;;;;;3.38;1.70;;;31.30;90.20;;;;;;5023012;28;20124;-84
2021/07/15 10:21:01;;;;;;;2.35;1.85;;;31.30;91.70;;;;;;5009271;28;20397;-84
2021/07/15 10:23:31;;;;;;;2.33;1.50;;;31.10;90.30;;;;;;5022600;28;20049;-85
2021/07/15 10:25:57;;;;;;;3.53;1.65;;;30.80;90.60;;;;;;5002828;28;20037;-84
2021/07/15 10:28:22;;;;;;;1.90;1.48;;;30.70;90.30;;;;;;5022817;28;20021;-83
2021/07/15 10:30:48;;;;;;;2.13;1.70;;;30.80;91.20;;;;;;5003488;28;20100;-84
2021/07/15 10:33:13;;;;;;;2.15;1.67;;;30.60;90.60;;;;;;5020138;28;20117;-85
2021/07/15 10:35:39;;;;;;;2.55;1.65;;;30.50;90.80;;;;;;4988227;28;20077;-84
2021/07/15 10:38:04;;;;;;;2.10;1.90;;;30.40;90.90;;;;;;4998416;28;20591;-83
2021/07/15 10:40:30;;;;;;;3.05;1.38;;;30.20;91.00;;;;;;5022445;28;20072;-81
2021/07/15 10:42:55;;;;;;;4.57;2.00;;;30.10;91.80;;;;;;4998670;28;20137;-85
2021/07/15 10:45:21;;;;;;;6.88;2.30;;;29.90;91.80;;;;;;5007886;28;20055;-83
2021/07/15 10:47:51;;;;;;;2.80;2.60;;;29.80;91.60;;;;;;4985851;28;20040;-83
2021/07/15 10:50:16;;;;;;;3.92;3.20;;;29.60;91.00;;;;;;5005226;28;20509;-83
2021/07/15 10:52:42;;;;;;;2.50;1.85;;;29.50;92.00;;;;;;5017496;28;20052;-82
2021/07/15 10:55:08;;;;;;;3.00;2.20;;;29.40;91.10;;;;;;5017681;28;20026;-84
2021/07/15 10:57:33;;;;;;;2.95;1.58;;;29.20;90.80;;;;;;5005815;28;20030;-83
2021/07/15 11:00:26;;;;;;;2.08;1.90;;;29.10;91.10;;;;;;5014009;28;20040;-83
2021/07/15 11:03:10;;;;;;;3.38;3.10;;;28.90;90.70;;;;;;5003220;28;20492;-84
2021/07/15 11:05:46;;;;;;;3.10;2.80;;;28.80;90.70;;;;;;5013521;28;20028;-84
2021/07/15 11:08:12;;;;;;;2.47;2.28;;;28.70;91.10;;;;;;4990494;28;20401;-84
2021/07/15 11:10:38;;;;;;;2.60;2.20;;;28.80;91.50;;;;;;5013746;28;20026;-84
2021/07/15 11:13:04;;;;;;;2.25;2.00;;;28.60;91.30;;;;;;5013465;28;20037;-82
2021/07/15 11:15:52;;;;;;;4.05;2.35;;;28.70;91.40;;;;;;5000319;28;20116;-84
2021/07/15 11:18:47;;;;;;;2.38;2.00;;;28.50;91.70;;;;;;4999898;28;20475;-83
2021/07/15 11:21:30;;;;;;;2.97;2.53;;;28.40;91.10;;;;;;5014830;28;20057;-83
2021/07/15 11:24:05;;;;;;;2.10;1.95;;;28.30;91.60;;;;;;5019397;28;20055;-84
2021/07/15 11:26:42;;;;;;;2.47;2.28;;;28.20;92.00;;;;;;5017708;28;20099;-83
2021/07/15 11:29:09;;;;;;;2.45;2.03;;;28.20;91.50;;;;;;4999747;28;20092;-80
2021/07/15 11:31:44;;;;;;;1.95;1.70;;;28.10;91.40;;;;;;5017017;28;20126;-84
2021/07/15 11:34:10;;;;;;;4.32;2.80;;;28.00;91.20;;;;;;5010236;28;20065;-84
2021/07/15 11:36:36;;;;;;;2.28;1.88;;;27.90;91.00;;;;;;5019544;28;20472;-81
2021/07/15 11:39:04;;;;;;;5.43;1.95;;;27.90;91.60;;;;;;5001901;28;20053;-83
2021/07/15 11:41:47;;;;;;;2.20;2.00;;;27.70;91.30;;;;;;5006160;28;20520;-83
2021/07/15 11:44:13;;;;;;;3.65;1.90;;;27.70;91.30;;;;;;5025921;28;20049;-84
2021/07/15 11:46:39;;;;;;;2.58;2.33;;;27.60;91.40;;;;;;5003943;28;20034;-83
2021/07/15 11:49:08;;;;;;;2.35;2.13;;;27.50;91.70;;;;;;5010417;28;20088;-83
2021/07/15 11:51:59;;;;;;;5.80;2.50;;;27.50;91.50;;;;;;5013422;28;20029;-82
2021/07/15 11:54:32;;;;;;;3.88;2.63;;;27.40;91.10;;;;;;5002815;28;20026;-81
2021/07/15 11:57:13;;;;;;;2.65;2.45;;;27.40;91.40;;;;;;5009383;28;20129;-83
2021/07/15 11:59:48;;;;;;;3.65;2.47;;;27.50;91.10;;;;;;5020720;28;20026;-82
2021/07/15 12:02:39;;;;;;;2.90;2.47;;;27.60;91.80;;;;;;5017353;28;20022;-83
2021/07/15 12:05:12;;;;;;;2.53;2.25;;;27.60;92.10;;;;;;5021838;28;20021;-83
2021/07/15 12:07:39;;;;;;;2.05;1.95;;;27.80;91.80;;;;;;4997367;28;20392;-84
2021/07/15 12:10:07;;;;;;;2.08;1.98;;;27.90;91.40;;;;;;5000705;28;20544;-84
2021/07/15 12:12:32;;;;;;;3.85;2.80;;;28.00;91.90;;;;;;5018933;28;20481;-84
2021/07/15 12:14:58;;;;;;;4.60;4.20;;;28.20;92.10;;;;;;5016500;28;20083;-84
2021/07/15 12:17:24;;;;;;;5.70;5.10;;;28.40;92.60;;;;;;5018921;28;20041;-83
2021/07/15 12:20:08;;;;;;;5.00;4.45;;;29.10;91.90;;;;;;5022621;28;20094;-84
2021/07/15 12:22:47;;;;;;;4.55;3.90;;;29.70;91.40;;;;;;4998091;28;20492;-84
2021/07/15 12:25:18;;;;;;;7.25;5.28;;;29.80;92.10;;;;;;4994823;28;20044;-84
2021/07/15 12:27:45;;;;;;;5.18;4.47;;;30.30;90.60;;;;;;4998520;28;20404;-84
2021/07/15 12:30:11;;;;;;;5.25;4.75;;;30.70;89.00;;;;;;5005286;28;20029;-83
2021/07/15 12:32:38;;;;;;;7.47;4.95;;;31.00;90.60;;;;;;5020960;28;20033;-83
2021/07/15 12:35:13;;;;;;;6.13;4.68;;;31.00;88.80;;;;;;5004899;28;20040;-81
2021/07/15 12:37:39;;;;;;;5.40;4.57;;;31.00;87.90;;;;;;5011651;28;20404;-83
2021/07/15 12:40:06;;;;;;;6.13;4.78;;;31.20;87.20;;;;;;5006132;28;20041;-84
2021/07/15 12:42:32;;;;;;;6.35;4.22;;;31.20;87.20;;;;;;4987953;28;20049;-83
2021/07/15 12:44:57;;;;;;;4.38;3.60;;;31.20;86.60;;;;;;5004787;28;20084;-84
2021/07/15 12:47:23;;;;;;;4.38;3.75;;;31.30;88.00;;;;;;4998898;28;20037;-85
2021/07/15 12:49:48;;;;;;;4.35;3.85;;;31.30;88.00;;;;;;5007377;28;20397;-84